Flight ASX109

  • Submitted By: Krzysztof H. Blaszkow
  • Departure Airport: Warszawa Chopina (EPWA)
  • Arrival Airport: Gdansk im. Lecha Walesy (EPGD)
  • Aircraft: ATR 72-500 (SP-RYD)
  • Flight Time: 01.32.41
  • Date Submitted: 10/30/2016
  • Status: Accepted
Flight Details
Gross Revenue:
(70 load / € 55.00 per unit
€ 3,850.00
Fuel Cost:
(733.912 fuel used @ 0.45 / unit)
€ 330.26

Additional Log Information:

View Log

[17:42] - Flight 1 ATR 72-500 House Livery
[17:42] - Flight ASX109 is ready to depart EPWA with a final destination of EPGD.
[17:42] - Parking Brake Applied
[17:42] - Boarding
[17:42] - ADF1 - 305.0
[17:42] - ADF2 - 371.0
[17:42] - NAV1 - 114.30
[17:42] - NAV2 - 114.05
[17:42] - COM1 - 125.50
[17:42] - COM2 - 125.27
[17:42] - Transponder - 1200
[17:44] - Beacon Light ON 3AGL
[17:44] - Logo Lights ON 3AGL
[17:44] - Wing Lights ON 3AGL
[17:47] - Transponder - 2200
[17:48] - COM1 - 122.80
[17:54] - Parking Brake Released
[17:54] - Taxi Lights ON 3AGL
[17:54] - Navigation Lights ON 3AGL
[17:54] - Engine 1 Started
[17:54] - Pushing Back from the gate
[17:55] - Flaps to position 1
[17:55] - Engine 2 Started
[17:57] - Taxiing to Runway
[17:59] - Landing Lights ON 3AGL
[17:59] - Taxi Lights OFF 3AGL
[18:00] - Strobe Lights ON 3AGL
[18:01] - Taking Off with 70 passengers on board
[18:01] - Take off at 125kts, with a pitch of 5deg and 5533lbs of fuel on board
[18:01] - Wind Heading 310 | Wind Speed 10kts | Temperature 6 deg C
[18:01] - METAR Departure: EPWA 301730Z 30009KT 9999 FEW018 BKN041 06/04 Q1021 NOSIG

[18:02] - Gear up at 348AGL
[18:02] - Climbing to TOC
[18:02] - Flaps to position 0 at 2156ft and 149kts
[18:04] - AutoPilot Engaged at 5568AGL
[18:06] - Landing Lights OFF 7609AGL
[18:19] - TOC reached
[18:19] - Cruise started
[18:35] - TOD reached
[18:35] - Descending to destination
[18:36] - NAV1 - 116.10
[18:39] - NAV2 - 110.30
[18:45] - Landing Lights ON 10964AGL
[18:55] - NAV1 - 110.30
[18:56] - Landing Shortly
[19:04] - Flaps to position 1 at 2766ft and 179kts
[19:04] - Gear down at 2723AGL
[19:05] - AutoPilot Disengaged at 1979AGL
[19:05] - AutoPilot Engaged at 1966AGL
[19:08] - Landed at -328fpm. With 4033lbs of fuel onboard and a pitch angle of 7deg.
[19:08] - Wind Heading 311 | Wind Speed 6kts | Temperature 5 deg C
[19:08] - METAR Arrival: EPGD 301830Z 31007KT 9999 BKN036 05/03 Q1024

[19:08] - AutoPilot Disengaged at 6AGL
[19:08] - Flaps to position 0
[19:08] - Taxiing to Gate
[19:09] - Landing Lights OFF 6AGL
[19:09] - Taxi Lights ON 6AGL
[19:09] - Strobe Lights OFF 6AGL
[19:15] - Parking Brake Applied
[19:15] - Arrived safely at EPGD. We hope you enjoyed your flight!
[19:15] - Flaps to position 1
[19:15] - Flaps to position 2
[19:15] - Flaps to position 1
[19:15] - Flaps to position 0
[19:15] - Flight 1 ATR 72-500 House Livery
[19:15] - MaxSim Rate: 1x
[19:15] - SiouxAcars ver: 1.0.1.2

Route Map